Al Amerat — 3FRY4 — position and weather

sailwx.info

Track history (hours):
 
Tides and Currents Weather Stations Pressure Air Temp Water Temp Dewpoint Dewpoint Depression Visibility Wind Speed Wind Dir Waves Ship Positions

Al Amerat

Last reported at 2017-Sep-05 07:51 UTC. Time now 2017-Sep-25 11:46 UTC.
Position N 30°44' E 032°20'.
Warning: this ship's position is 20 days out of date.

Length 183 m; draft 8 m.

Type: Tanker. MMSI: 370706000.

Date/timePositionNaut miles runAvg speedWind from/ knotsBaromVisibWave heightAir tempDewpointWater temp
2017-Sep-05 07:51N 30°44' E 032°20'3 9.2
2017-Sep-05 07:30N 30°47' E 032°19'8 7.8
2017-Sep-05 06:32N 30°54' E 032°19'1 9.2
2017-Sep-05 06:28N 30°55' E 032°19'5 9.1
2017-Sep-05 05:58N 30°59' E 032°19'5 9.2
2017-Sep-05 05:25N 31°05' E 032°19'4 9.1
2017-Sep-05 04:59N 31°08' E 032°19'4 8.4
2017-Sep-05 04:30N 31°12' E 032°20'4 7.3
2017-Sep-05 03:54N 31°17' E 032°22'5 9.9
2017-Sep-05 03:23N 31°21' E 032°23'2 4.8
2017-Sep-05 03:00N 31°22' E 032°21'1 2.7
2017-Sep-05 02:28N 31°22' E 032°19'0 0.0
2017-Sep-05 01:58N 31°22' E 032°19'0 0.0
2017-Sep-05 01:19N 31°22' E 032°19'0 0.0
2017-Sep-05 00:58N 31°22' E 032°19'0 0.0
2017-Sep-05 00:28N 31°22' E 032°19'0 0.0
2017-Sep-04 23:58N 31°22' E 032°19'0 0.0
2017-Sep-04 23:28N 31°22' E 032°19'0 0.0
2017-Sep-04 22:58N 31°22' E 032°19'0 0.0
2017-Sep-04 22:28N 31°22' E 032°19'0 0.0
2017-Sep-04 19:46N 31°22' E 032°19'0 0.0
2017-Sep-04 19:28N 31°22' E 032°19'0 0.0
2017-Sep-04 18:58N 31°22' E 032°19'0 0.0
2017-Sep-04 18:07N 31°22' E 032°19'0 0.0
2017-Sep-04 17:58N 31°22' E 032°19'0 0.0
2017-Sep-04 17:28N 31°22' E 032°19'0 0.0
2017-Sep-04 16:58N 31°22' E 032°19'0 0.0
2017-Sep-04 16:01N 31°22' E 032°19'0 0.2
2017-Sep-04 15:58N 31°22' E 032°19'0 0.0
2017-Sep-04 15:16N 31°22' E 032°19'0 0.0
2017-Sep-04 14:58N 31°22' E 032°19'0 0.0
2017-Sep-04 14:28N 31°22' E 032°19'0 0.0
2017-Sep-04 13:58N 31°22' E 032°19'0 0.0
2017-Sep-04 13:28N 31°22' E 032°19'0 0.0
2017-Sep-04 12:58N 31°22' E 032°19'0 0.0
2017-Sep-04 12:28N 31°22' E 032°19'0 0.0
2017-Sep-04 11:58N 31°22' E 032°19'0 0.0
2017-Sep-04 11:28N 31°22' E 032°19'0 0.0
2017-Sep-04 10:58N 31°22' E 032°19'0 1.0
2017-Sep-04 10:31N 31°22' E 032°20'4 7.4
2017-Sep-04 10:00N 31°26' E 032°19'3 5.8
2017-Sep-04 09:30N 31°28' E 032°17'3 5.8
2017-Sep-04 09:00N 31°30' E 032°14'4 7.4
2017-Sep-04 08:30N 31°32' E 032°11'4 8.0
2017-Sep-04 08:00N 31°35' E 032°08'4 7.5
2017-Sep-04 07:30N 31°38' E 032°05'812.9
2017-Sep-04 06:55N 31°43' E 031°59'4512.8
2017-Sep-04 03:26N 32°12' E 031°18'5113.0
2017-Sep-03 23:31N 32°32' E 030°23'012.9
2017-Sep-03 23:29N 32°32' E 030°22'612.9
2017-Sep-03 23:00N 32°33' E 030°15'5012.8
2017-Sep-03 19:05N 32°44' E 029°17'112.5
2017-Sep-03 19:00N 32°44' E 029°16'612.3
2017-Sep-03 18:30N 32°46' E 029°09'14112.7
2017-Sep-03 07:27N 33°18' E 026°26'613.2
2017-Sep-03 07:00N 33°19' E 026°19'713.1
2017-Sep-03 06:30N 33°21' E 026°11'712.9
2017-Sep-03 05:59N 33°22' E 026°03'713.0
2017-Sep-03 05:29N 33°24' E 025°56'49511.9
2017-Sep-01 11:47N 35°43' E 016°19'413.2
2017-Sep-01 11:30N 35°44' E 016°15'613.1
2017-Sep-01 11:00N 35°46' E 016°07'713.0
2017-Sep-01 10:30N 35°48' E 015°59'613.0
2017-Sep-01 10:00N 35°49' E 015°52'713.0
2017-Sep-01 09:30N 35°51' E 015°44'713.0
2017-Sep-01 09:00N 35°53' E 015°36'613.0
2017-Sep-01 08:30N 35°54' E 015°28'713.0
2017-Sep-01 07:59N 35°56' E 015°20'613.1
2017-Sep-01 07:30N 35°58' E 015°13'613.0
2017-Sep-01 07:00N 36°00' E 015°05'713.2
2017-Sep-01 06:30N 36°02' E 014°57'713.2
2017-Sep-01 06:00N 36°04' E 014°50'713.0
2017-Sep-01 05:30N 36°06' E 014°42'613.1
2017-Sep-01 05:00N 36°09' E 014°35'713.0
2017-Sep-01 04:30N 36°11' E 014°27'712.9
2017-Sep-01 04:00N 36°13' E 014°19'612.8
2017-Sep-01 03:30N 36°15' E 014°12'612.9
2017-Sep-01 03:00N 36°18' E 014°04'613.0
2017-Sep-01 02:30N 36°20' E 013°57'612.8
2017-Sep-01 02:00N 36°22' E 013°50'612.8
2017-Sep-01 01:30N 36°24' E 013°42'612.7
2017-Sep-01 01:00N 36°26' E 013°35'612.6
2017-Sep-01 00:30N 36°29' E 013°27'612.7
2017-Sep-01 00:00N 36°31' E 013°20'612.7
2017-Aug-31 23:30N 36°33' E 013°13'612.7
2017-Aug-31 23:00N 36°36' E 013°05'612.7
2017-Aug-31 22:30N 36°38' E 012°58'612.7
2017-Aug-31 22:00N 36°40' E 012°50'612.7
2017-Aug-31 21:30N 36°42' E 012°43'612.5
2017-Aug-31 21:00N 36°44' E 012°35'612.3
2017-Aug-31 20:30N 36°47' E 012°29'612.8
2017-Aug-31 20:00N 36°50' E 012°22'612.7
2017-Aug-31 19:30N 36°52' E 012°14'612.7
2017-Aug-31 19:00N 36°55' E 012°07'612.7
2017-Aug-31 18:30N 36°58' E 012°00'612.4
2017-Aug-31 18:00N 37°02' E 011°54'612.3
2017-Aug-31 17:30N 37°05' E 011°48'612.3
2017-Aug-31 17:00N 37°08' E 011°41'612.0
2017-Aug-31 16:30N 37°11' E 011°34'712.0
2017-Aug-31 15:57N 37°15' E 011°27'2412.2
2017-Aug-31 13:59N 37°25' E 011°00'612.2
2017-Aug-31 13:30N 37°27' E 010°53'612.1
2017-Aug-31 13:00N 37°28' E 010°46'612.3
2017-Aug-31 12:30N 37°30' E 010°38'612.3
2017-Aug-31 12:00N 37°32' E 010°31'612.4
2017-Aug-31 11:30N 37°33' E 010°23'712.6
2017-Aug-31 10:57N 37°34' E 010°14'712.7
2017-Aug-31 10:25N 37°34' E 010°06'512.8
2017-Aug-31 10:00N 37°35' E 009°59'612.2
2017-Aug-31 09:30N 37°35' E 009°52'612.3
2017-Aug-31 09:00N 37°37' E 009°44'612.4
2017-Aug-31 08:30N 37°38' E 009°36'612.5
2017-Aug-31 08:00N 37°39' E 009°28'612.4
2017-Aug-31 07:28N 37°40' E 009°20'612.5
2017-Aug-31 07:00N 37°41' E 009°13'612.5
2017-Aug-31 06:30N 37°42' E 009°05'612.5
2017-Aug-31 06:00N 37°44' E 008°58'612.6
2017-Aug-31 05:30N 37°43' E 008°50'612.5
2017-Aug-31 05:00N 37°42' E 008°42'612.4
2017-Aug-31 04:29N 37°42' E 008°34'612.2
2017-Aug-31 04:00N 37°41' E 008°27'712.3
2017-Aug-31 03:25N 37°40' E 008°17'512.4
2017-Aug-31 03:00N 37°40' E 008°11'6612.7
2017-Aug-30 21:49N 37°31' E 006°49'412.8
2017-Aug-30 21:30N 37°30' E 006°44'1812.7
2017-Aug-30 20:05N 37°28' E 006°21'112.6
2017-Aug-30 19:59N 37°28' E 006°20'612.5
2017-Aug-30 19:30N 37°27' E 006°12'612.4
2017-Aug-30 19:00N 37°26' E 006°04'612.4
2017-Aug-30 18:30N 37°26' E 005°57'612.4
2017-Aug-30 18:00N 37°25' E 005°49'612.5
2017-Aug-30 17:30N 37°24' E 005°41'20310.6
2017-Aug-29 22:20N 36°57' E 001°29'33113.0
2017-Aug-28 20:58N 35°60' W 005°17'714.9
2017-Aug-28 20:30N 35°58' W 005°25'  
Track history (hours):
 
Tides and Currents Weather Stations Pressure Air Temp Water Temp Dewpoint Dewpoint Depression Visibility Wind Speed Wind Dir Waves Ship Positions

Al Amerat

Last reported at 2017-Sep-05 07:51 UTC. Time now 2017-Sep-25 11:46 UTC.
Position N 30°44' E 032°20'.
Warning: this ship's position is 20 days out of date.

Length 183 m; draft 8 m.

Type: Tanker. MMSI: 370706000.

Date/timePositionNaut miles runAvg speedWind from/ knotsBaromVisibWave heightAir tempDewpointWater temp
2017-Sep-05 07:51N 30°44' E 032°20'3 9.2
2017-Sep-05 07:30N 30°47' E 032°19'8 7.8
2017-Sep-05 06:32N 30°54' E 032°19'1 9.2
2017-Sep-05 06:28N 30°55' E 032°19'5 9.1
2017-Sep-05 05:58N 30°59' E 032°19'5 9.2
2017-Sep-05 05:25N 31°05' E 032°19'4 9.1
2017-Sep-05 04:59N 31°08' E 032°19'4 8.4
2017-Sep-05 04:30N 31°12' E 032°20'4 7.3
2017-Sep-05 03:54N 31°17' E 032°22'5 9.9
2017-Sep-05 03:23N 31°21' E 032°23'2 4.8
2017-Sep-05 03:00N 31°22' E 032°21'1 2.7
2017-Sep-05 02:28N 31°22' E 032°19'0 0.0
2017-Sep-05 01:58N 31°22' E 032°19'0 0.0
2017-Sep-05 01:19N 31°22' E 032°19'0 0.0
2017-Sep-05 00:58N 31°22' E 032°19'0 0.0
2017-Sep-05 00:28N 31°22' E 032°19'0 0.0
2017-Sep-04 23:58N 31°22' E 032°19'0 0.0
2017-Sep-04 23:28N 31°22' E 032°19'0 0.0
2017-Sep-04 22:58N 31°22' E 032°19'0 0.0
2017-Sep-04 22:28N 31°22' E 032°19'0 0.0
2017-Sep-04 19:46N 31°22' E 032°19'0 0.0
2017-Sep-04 19:28N 31°22' E 032°19'0 0.0
2017-Sep-04 18:58N 31°22' E 032°19'0 0.0
2017-Sep-04 18:07N 31°22' E 032°19'0 0.0
2017-Sep-04 17:58N 31°22' E 032°19'0 0.0
2017-Sep-04 17:28N 31°22' E 032°19'0 0.0
2017-Sep-04 16:58N 31°22' E 032°19'0 0.0
2017-Sep-04 16:01N 31°22' E 032°19'0 0.2
2017-Sep-04 15:58N 31°22' E 032°19'0 0.0
2017-Sep-04 15:16N 31°22' E 032°19'0 0.0
2017-Sep-04 14:58N 31°22' E 032°19'0 0.0
2017-Sep-04 14:28N 31°22' E 032°19'0 0.0
2017-Sep-04 13:58N 31°22' E 032°19'0 0.0
2017-Sep-04 13:28N 31°22' E 032°19'0 0.0
2017-Sep-04 12:58N 31°22' E 032°19'0 0.0
2017-Sep-04 12:28N 31°22' E 032°19'0 0.0
2017-Sep-04 11:58N 31°22' E 032°19'0 0.0
2017-Sep-04 11:28N 31°22' E 032°19'0 0.0
2017-Sep-04 10:58N 31°22' E 032°19'0 1.0
2017-Sep-04 10:31N 31°22' E 032°20'4 7.4
2017-Sep-04 10:00N 31°26' E 032°19'3 5.8
2017-Sep-04 09:30N 31°28' E 032°17'3 5.8
2017-Sep-04 09:00N 31°30' E 032°14'4 7.4
2017-Sep-04 08:30N 31°32' E 032°11'4 8.0
2017-Sep-04 08:00N 31°35' E 032°08'4 7.5
2017-Sep-04 07:30N 31°38' E 032°05'812.9
2017-Sep-04 06:55N 31°43' E 031°59'4512.8
2017-Sep-04 03:26N 32°12' E 031°18'5113.0
2017-Sep-03 23:31N 32°32' E 030°23'012.9
2017-Sep-03 23:29N 32°32' E 030°22'612.9
2017-Sep-03 23:00N 32°33' E 030°15'5012.8
2017-Sep-03 19:05N 32°44' E 029°17'112.5
2017-Sep-03 19:00N 32°44' E 029°16'612.3
2017-Sep-03 18:30N 32°46' E 029°09'14112.7
2017-Sep-03 07:27N 33°18' E 026°26'613.2
2017-Sep-03 07:00N 33°19' E 026°19'713.1
2017-Sep-03 06:30N 33°21' E 026°11'712.9
2017-Sep-03 05:59N 33°22' E 026°03'713.0
2017-Sep-03 05:29N 33°24' E 025°56'49511.9
2017-Sep-01 11:47N 35°43' E 016°19'413.2
2017-Sep-01 11:30N 35°44' E 016°15'613.1
2017-Sep-01 11:00N 35°46' E 016°07'713.0
2017-Sep-01 10:30N 35°48' E 015°59'613.0
2017-Sep-01 10:00N 35°49' E 015°52'713.0
2017-Sep-01 09:30N 35°51' E 015°44'713.0
2017-Sep-01 09:00N 35°53' E 015°36'613.0
2017-Sep-01 08:30N 35°54' E 015°28'713.0
2017-Sep-01 07:59N 35°56' E 015°20'613.1
2017-Sep-01 07:30N 35°58' E 015°13'613.0
2017-Sep-01 07:00N 36°00' E 015°05'713.2
2017-Sep-01 06:30N 36°02' E 014°57'713.2
2017-Sep-01 06:00N 36°04' E 014°50'713.0
2017-Sep-01 05:30N 36°06' E 014°42'613.1
2017-Sep-01 05:00N 36°09' E 014°35'713.0
2017-Sep-01 04:30N 36°11' E 014°27'712.9
2017-Sep-01 04:00N 36°13' E 014°19'612.8
2017-Sep-01 03:30N 36°15' E 014°12'612.9
2017-Sep-01 03:00N 36°18' E 014°04'613.0
2017-Sep-01 02:30N 36°20' E 013°57'612.8
2017-Sep-01 02:00N 36°22' E 013°50'612.8
2017-Sep-01 01:30N 36°24' E 013°42'612.7
2017-Sep-01 01:00N 36°26' E 013°35'612.6
2017-Sep-01 00:30N 36°29' E 013°27'612.7
2017-Sep-01 00:00N 36°31' E 013°20'612.7
2017-Aug-31 23:30N 36°33' E 013°13'612.7
2017-Aug-31 23:00N 36°36' E 013°05'612.7
2017-Aug-31 22:30N 36°38' E 012°58'612.7
2017-Aug-31 22:00N 36°40' E 012°50'612.7
2017-Aug-31 21:30N 36°42' E 012°43'612.5
2017-Aug-31 21:00N 36°44' E 012°35'612.3
2017-Aug-31 20:30N 36°47' E 012°29'612.8
2017-Aug-31 20:00N 36°50' E 012°22'612.7
2017-Aug-31 19:30N 36°52' E 012°14'612.7
2017-Aug-31 19:00N 36°55' E 012°07'612.7
2017-Aug-31 18:30N 36°58' E 012°00'612.4
2017-Aug-31 18:00N 37°02' E 011°54'612.3
2017-Aug-31 17:30N 37°05' E 011°48'612.3
2017-Aug-31 17:00N 37°08' E 011°41'612.0
2017-Aug-31 16:30N 37°11' E 011°34'712.0
2017-Aug-31 15:57N 37°15' E 011°27'2412.2
2017-Aug-31 13:59N 37°25' E 011°00'612.2
2017-Aug-31 13:30N 37°27' E 010°53'612.1
2017-Aug-31 13:00N 37°28' E 010°46'612.3
2017-Aug-31 12:30N 37°30' E 010°38'612.3
2017-Aug-31 12:00N 37°32' E 010°31'612.4
2017-Aug-31 11:30N 37°33' E 010°23'712.6
2017-Aug-31 10:57N 37°34' E 010°14'712.7
2017-Aug-31 10:25N 37°34' E 010°06'512.8
2017-Aug-31 10:00N 37°35' E 009°59'612.2
2017-Aug-31 09:30N 37°35' E 009°52'612.3
2017-Aug-31 09:00N 37°37' E 009°44'612.4
2017-Aug-31 08:30N 37°38' E 009°36'612.5
2017-Aug-31 08:00N 37°39' E 009°28'612.4
2017-Aug-31 07:28N 37°40' E 009°20'612.5
2017-Aug-31 07:00N 37°41' E 009°13'612.5
2017-Aug-31 06:30N 37°42' E 009°05'612.5
2017-Aug-31 06:00N 37°44' E 008°58'612.6
2017-Aug-31 05:30N 37°43' E 008°50'612.5
2017-Aug-31 05:00N 37°42' E 008°42'612.4
2017-Aug-31 04:29N 37°42' E 008°34'612.2
2017-Aug-31 04:00N 37°41' E 008°27'712.3
2017-Aug-31 03:25N 37°40' E 008°17'512.4
2017-Aug-31 03:00N 37°40' E 008°11'6612.7
2017-Aug-30 21:49N 37°31' E 006°49'412.8
2017-Aug-30 21:30N 37°30' E 006°44'1812.7
2017-Aug-30 20:05N 37°28' E 006°21'112.6
2017-Aug-30 19:59N 37°28' E 006°20'612.5
2017-Aug-30 19:30N 37°27' E 006°12'612.4
2017-Aug-30 19:00N 37°26' E 006°04'612.4
2017-Aug-30 18:30N 37°26' E 005°57'612.4
2017-Aug-30 18:00N 37°25' E 005°49'612.5
2017-Aug-30 17:30N 37°24' E 005°41'20310.6
2017-Aug-29 22:20N 36°57' E 001°29'33113.0
2017-Aug-28 20:58N 35°60' W 005°17'714.9
2017-Aug-28 20:30N 35°58' W 005°25'  

Dump ship's entire track history